Terminal Aerodrome Forecast
Issued by NWS

Home | Current Version | Previous Version | Text Only | Print | Product List | Glossary On
Versions: 1 2 3 4 5 6 7 8 9 10 11 12 13
000
FTUS45 KREV 281100
TAFMMH
TAF
KMMH 281120Z 2812/2912 VRB04KT P6SM SCT090 BKN180
     FM282000 23014G23KT P6SM VCSH BKN080 OVC180
     FM290300 20006KT P6SM VCSH BKN080 OVC180
      AMD NOT SKED TIL 281400=

USA.gov is the U.S. government's official web portal to all federal, state and local government web resources and services.